sensor_id;sensor_type;location;lat;lon;timestamp;P1;durP1;ratioP1;P2;durP2;ratioP2
22863;SDS011;11599;49.882;8.680;2023-04-25T01:10:37;8.50;;;4.33;;
22863;SDS011;11599;49.882;8.680;2023-04-25T01:21:07;9.13;;;4.57;;
22863;SDS011;11599;49.882;8.680;2023-04-25T01:31:30;6.53;;;4.50;;
22863;SDS011;11599;49.882;8.680;2023-04-25T01:41:54;6.10;;;4.20;;
22863;SDS011;11599;49.882;8.680;2023-04-25T01:52:16;6.37;;;3.97;;
22863;SDS011;11599;49.882;8.680;2023-04-25T02:02:39;10.10;;;4.57;;
22863;SDS011;11599;49.882;8.680;2023-04-25T02:13:27;7.30;;;4.47;;
22863;SDS011;11599;49.882;8.680;2023-04-25T02:24:05;7.50;;;4.43;;
22863;SDS011;11599;49.882;8.680;2023-04-25T02:34:28;8.70;;;4.90;;
22863;SDS011;11599;49.882;8.680;2023-04-25T02:44:50;7.90;;;4.80;;
22863;SDS011;11599;49.882;8.680;2023-04-25T02:55:12;9.70;;;4.93;;
22863;SDS011;11599;49.882;8.680;2023-04-25T03:05:35;9.57;;;5.60;;
22863;SDS011;11599;49.882;8.680;2023-04-25T03:15:57;10.47;;;7.47;;
22863;SDS011;11599;49.882;8.680;2023-04-25T03:26:21;10.90;;;7.40;;
22863;SDS011;11599;49.882;8.680;2023-04-25T03:36:42;11.97;;;7.70;;
22863;SDS011;11599;49.882;8.680;2023-04-25T03:47:08;11.18;;;7.30;;
22863;SDS011;11599;49.882;8.680;2023-04-25T03:57:30;10.87;;;7.67;;
22863;SDS011;11599;49.882;8.680;2023-04-25T04:07:54;11.70;;;7.70;;
22863;SDS011;11599;49.882;8.680;2023-04-25T04:18:16;13.70;;;8.02;;
22863;SDS011;11599;49.882;8.680;2023-04-25T04:28:39;12.77;;;7.40;;
22863;SDS011;11599;49.882;8.680;2023-04-25T04:39:18;12.87;;;8.10;;
22863;SDS011;11599;49.882;8.680;2023-04-25T04:50:00;12.87;;;8.20;;
22863;SDS011;11599;49.882;8.680;2023-04-25T05:00:45;13.90;;;7.07;;
22863;SDS011;11599;49.882;8.680;2023-04-25T05:11:26;12.70;;;5.77;;
22863;SDS011;11599;49.882;8.680;2023-04-25T05:22:14;14.10;;;5.27;;
22863;SDS011;11599;49.882;8.680;2023-04-25T05:32:55;18.30;;;6.20;;
22863;SDS011;11599;49.882;8.680;2023-04-25T05:43:17;15.40;;;5.37;;
22863;SDS011;11599;49.882;8.680;2023-04-25T05:53:52;15.90;;;7.00;;
22863;SDS011;11599;49.882;8.680;2023-04-25T06:04:13;18.10;;;7.10;;
22863;SDS011;11599;49.882;8.680;2023-04-25T06:14:36;14.83;;;6.20;;
22863;SDS011;11599;49.882;8.680;2023-04-25T06:24:58;19.95;;;8.25;;
22863;SDS011;11599;49.882;8.680;2023-04-25T06:35:22;16.70;;;7.03;;
22863;SDS011;11599;49.882;8.680;2023-04-25T06:45:44;18.17;;;5.97;;
22863;SDS011;11599;49.882;8.680;2023-04-25T06:56:07;16.00;;;4.70;;
22863;SDS011;11599;49.882;8.680;2023-04-25T07:06:44;13.17;;;5.93;;
22863;SDS011;11599;49.882;8.680;2023-04-25T07:17:10;16.67;;;5.87;;
22863;SDS011;11599;49.882;8.680;2023-04-25T07:27:33;16.83;;;8.50;;
22863;SDS011;11599;49.882;8.680;2023-04-25T07:38:02;11.03;;;4.10;;
22863;SDS011;11599;49.882;8.680;2023-04-25T07:48:24;7.63;;;3.27;;
22863;SDS011;11599;49.882;8.680;2023-04-25T07:58:48;10.17;;;4.60;;
22863;SDS011;11599;49.882;8.680;2023-04-25T08:09:12;8.10;;;3.20;;
22863;SDS011;11599;49.882;8.680;2023-04-25T08:19:37;8.23;;;3.43;;
22863;SDS011;11599;49.882;8.680;2023-04-25T08:30:00;8.17;;;3.27;;
22863;SDS011;11599;49.882;8.680;2023-04-25T08:40:26;8.60;;;2.77;;
22863;SDS011;11599;49.882;8.680;2023-04-25T08:50:56;10.43;;;3.37;;
22863;SDS011;11599;49.882;8.680;2023-04-25T09:01:20;5.97;;;2.40;;
22863;SDS011;11599;49.882;8.680;2023-04-25T09:11:46;7.77;;;2.47;;
22863;SDS011;11599;49.882;8.680;2023-04-25T09:22:09;7.70;;;2.47;;
22863;SDS011;11599;49.882;8.680;2023-04-25T09:32:31;8.53;;;2.30;;
22863;SDS011;11599;49.882;8.680;2023-04-25T09:42:54;6.17;;;2.60;;
22863;SDS011;11599;49.882;8.680;2023-04-25T09:53:18;7.90;;;2.77;;
22863;SDS011;11599;49.882;8.680;2023-04-25T10:03:56;4.47;;;2.70;;
22863;SDS011;11599;49.882;8.680;2023-04-25T10:14:32;6.83;;;2.43;;
22863;SDS011;11599;49.882;8.680;2023-04-25T10:24:55;5.70;;;2.77;;
22863;SDS011;11599;49.882;8.680;2023-04-25T10:35:17;4.87;;;2.67;;
22863;SDS011;11599;49.882;8.680;2023-04-25T10:45:52;7.67;;;3.10;;
22863;SDS011;11599;49.882;8.680;2023-04-25T10:56:16;9.00;;;3.33;;
22863;SDS011;11599;49.882;8.680;2023-04-25T11:06:51;9.83;;;3.37;;
22863;SDS011;11599;49.882;8.680;2023-04-25T11:17:13;7.67;;;3.93;;
22863;SDS011;11599;49.882;8.680;2023-04-25T11:27:38;7.63;;;2.80;;
22863;SDS011;11599;49.882;8.680;2023-04-25T11:38:00;5.73;;;2.97;;
22863;SDS011;11599;49.882;8.680;2023-04-25T11:48:26;9.80;;;3.20;;
22863;SDS011;11599;49.882;8.680;2023-04-25T11:58:53;10.93;;;3.80;;
22863;SDS011;11599;49.882;8.680;2023-04-25T12:09:17;9.47;;;4.53;;
22863;SDS011;11599;49.882;8.680;2023-04-25T12:19:39;8.87;;;3.20;;
22863;SDS011;11599;49.882;8.680;2023-04-25T12:30:03;7.43;;;2.90;;
22863;SDS011;11599;49.882;8.680;2023-04-25T12:40:25;10.50;;;3.47;;
22863;SDS011;11599;49.882;8.680;2023-04-25T12:50:49;6.17;;;2.70;;
22863;SDS011;11599;49.882;8.680;2023-04-25T13:01:10;6.70;;;2.90;;
22863;SDS011;11599;49.882;8.680;2023-04-25T13:11:35;6.13;;;2.30;;
22863;SDS011;11599;49.882;8.680;2023-04-25T13:21:56;8.83;;;2.67;;
22863;SDS011;11599;49.882;8.680;2023-04-25T13:32:20;5.63;;;2.63;;
22863;SDS011;11599;49.882;8.680;2023-04-25T13:42:42;8.33;;;2.33;;
22863;SDS011;11599;49.882;8.680;2023-04-25T13:53:05;9.60;;;2.23;;
22863;SDS011;11599;49.882;8.680;2023-04-25T14:03:27;5.97;;;2.13;;
22863;SDS011;11599;49.882;8.680;2023-04-25T14:13:50;8.53;;;2.17;;
22863;SDS011;11599;49.882;8.680;2023-04-25T14:24:11;6.00;;;2.10;;
22863;SDS011;11599;49.882;8.680;2023-04-25T14:34:37;8.40;;;2.40;;
22863;SDS011;11599;49.882;8.680;2023-04-25T14:45:00;7.43;;;2.53;;
22863;SDS011;11599;49.882;8.680;2023-04-25T14:55:23;8.20;;;3.10;;
22863;SDS011;11599;49.882;8.680;2023-04-25T15:05:44;4.33;;;2.20;;
22863;SDS011;11599;49.882;8.680;2023-04-25T15:16:07;5.13;;;2.33;;
22863;SDS011;11599;49.882;8.680;2023-04-25T15:26:28;8.87;;;2.67;;
22863;SDS011;11599;49.882;8.680;2023-04-25T15:36:52;11.20;;;2.50;;
22863;SDS011;11599;49.882;8.680;2023-04-25T15:47:13;6.77;;;2.30;;
22863;SDS011;11599;49.882;8.680;2023-04-25T15:57:36;6.87;;;1.80;;
22863;SDS011;11599;49.882;8.680;2023-04-25T16:07:57;7.00;;;1.80;;
22863;SDS011;11599;49.882;8.680;2023-04-25T16:18:21;4.80;;;1.70;;
22863;SDS011;11599;49.882;8.680;2023-04-25T16:28:42;11.53;;;1.70;;
22863;SDS011;11599;49.882;8.680;2023-04-25T16:39:05;3.23;;;1.30;;
22863;SDS011;11599;49.882;8.680;2023-04-25T16:49:27;3.40;;;1.50;;
22863;SDS011;11599;49.882;8.680;2023-04-25T16:59:50;9.90;;;1.63;;
22863;SDS011;11599;49.882;8.680;2023-04-25T17:10:12;6.17;;;1.97;;
22863;SDS011;11599;49.882;8.680;2023-04-25T17:20:36;6.00;;;1.50;;
22863;SDS011;11599;49.882;8.680;2023-04-25T17:30:58;10.67;;;2.40;;
22863;SDS011;11599;49.882;8.680;2023-04-25T17:41:21;10.50;;;1.83;;
22863;SDS011;11599;49.882;8.680;2023-04-25T17:51:42;8.37;;;1.73;;
22863;SDS011;11599;49.882;8.680;2023-04-25T18:02:05;10.23;;;2.20;;
22863;SDS011;11599;49.882;8.680;2023-04-25T18:12:26;8.10;;;1.70;;
22863;SDS011;11599;49.882;8.680;2023-04-25T18:22:49;9.80;;;1.63;;
22863;SDS011;11599;49.882;8.680;2023-04-25T18:33:11;10.18;;;2.25;;
22863;SDS011;11599;49.882;8.680;2023-04-25T18:43:34;8.77;;;2.10;;
22863;SDS011;11599;49.882;8.680;2023-04-25T18:53:58;6.63;;;1.80;;
22863;SDS011;11599;49.882;8.680;2023-04-25T19:04:23;6.53;;;1.73;;
22863;SDS011;11599;49.882;8.680;2023-04-25T19:14:44;4.80;;;1.77;;
22863;SDS011;11599;49.882;8.680;2023-04-25T19:25:07;8.83;;;2.37;;
22863;SDS011;11599;49.882;8.680;2023-04-25T19:35:30;13.57;;;2.50;;
22863;SDS011;11599;49.882;8.680;2023-04-25T19:45:53;12.07;;;2.90;;
22863;SDS011;11599;49.882;8.680;2023-04-25T19:56:15;13.10;;;2.50;;
22863;SDS011;11599;49.882;8.680;2023-04-25T20:06:38;9.07;;;2.03;;
22863;SDS011;11599;49.882;8.680;2023-04-25T20:16:59;9.97;;;2.23;;
22863;SDS011;11599;49.882;8.680;2023-04-25T20:27:22;8.43;;;2.33;;
22863;SDS011;11599;49.882;8.680;2023-04-25T20:37:44;10.53;;;2.97;;
22863;SDS011;11599;49.882;8.680;2023-04-25T20:48:09;8.25;;;2.40;;
22863;SDS011;11599;49.882;8.680;2023-04-25T20:58:30;9.20;;;2.30;;
22863;SDS011;11599;49.882;8.680;2023-04-25T21:08:53;9.98;;;2.50;;
22863;SDS011;11599;49.882;8.680;2023-04-25T21:19:15;8.73;;;2.90;;
22863;SDS011;11599;49.882;8.680;2023-04-25T21:29:38;9.18;;;2.60;;
22863;SDS011;11599;49.882;8.680;2023-04-25T21:39:59;10.40;;;2.20;;
22863;SDS011;11599;49.882;8.680;2023-04-25T21:50:22;6.10;;;1.90;;
22863;SDS011;11599;49.882;8.680;2023-04-25T22:00:44;8.83;;;2.23;;
22863;SDS011;11599;49.882;8.680;2023-04-25T22:11:07;8.97;;;2.20;;
22863;SDS011;11599;49.882;8.680;2023-04-25T22:21:28;4.97;;;1.63;;
22863;SDS011;11599;49.882;8.680;2023-04-25T22:31:55;7.03;;;1.87;;
22863;SDS011;11599;49.882;8.680;2023-04-25T22:42:17;7.47;;;2.13;;
22863;SDS011;11599;49.882;8.680;2023-04-25T22:52:40;7.93;;;2.17;;
22863;SDS011;11599;49.882;8.680;2023-04-25T23:03:02;8.67;;;2.27;;
22863;SDS011;11599;49.882;8.680;2023-04-25T23:13:25;4.33;;;1.70;;
22863;SDS011;11599;49.882;8.680;2023-04-25T23:23:46;5.10;;;2.33;;
22863;SDS011;11599;49.882;8.680;2023-04-25T23:34:09;7.07;;;1.77;;
22863;SDS011;11599;49.882;8.680;2023-04-25T23:44:30;5.60;;;1.80;;
22863;SDS011;11599;49.882;8.680;2023-04-25T23:54:53;7.53;;;2.40;;
